sensor_id;sensor_type;location;lat;lon;timestamp;P1;durP1;ratioP1;P2;durP2;ratioP2
7471;SDS011;3777;48.722;8.110;2022-12-20T00:01:50;31.92;;;26.98;;
7471;SDS011;3777;48.722;8.110;2022-12-20T00:04:17;29.43;;;25.73;;
7471;SDS011;3777;48.722;8.110;2022-12-20T00:06:44;30.00;;;25.60;;
7471;SDS011;3777;48.722;8.110;2022-12-20T00:09:11;28.43;;;25.30;;
7471;SDS011;3777;48.722;8.110;2022-12-20T00:11:39;31.58;;;27.42;;
7471;SDS011;3777;48.722;8.110;2022-12-20T00:14:07;28.70;;;25.60;;
7471;SDS011;3777;48.722;8.110;2022-12-20T00:16:34;30.80;;;27.00;;
7471;SDS011;3777;48.722;8.110;2022-12-20T00:19:03;30.10;;;26.10;;
7471;SDS011;3777;48.722;8.110;2022-12-20T00:21:31;31.65;;;27.00;;
7471;SDS011;3777;48.722;8.110;2022-12-20T00:23:59;26.80;;;23.50;;
7471;SDS011;3777;48.722;8.110;2022-12-20T00:26:28;28.63;;;24.33;;
7471;SDS011;3777;48.722;8.110;2022-12-20T00:28:57;26.50;;;23.55;;
7471;SDS011;3777;48.722;8.110;2022-12-20T00:31:26;30.73;;;26.63;;
7471;SDS011;3777;48.722;8.110;2022-12-20T00:33:55;31.35;;;27.13;;
7471;SDS011;3777;48.722;8.110;2022-12-20T00:36:23;33.65;;;27.90;;
7471;SDS011;3777;48.722;8.110;2022-12-20T00:38:52;27.38;;;24.48;;
7471;SDS011;3777;48.722;8.110;2022-12-20T00:41:21;29.00;;;25.73;;
7471;SDS011;3777;48.722;8.110;2022-12-20T00:43:49;29.60;;;25.48;;
7471;SDS011;3777;48.722;8.110;2022-12-20T00:46:18;30.52;;;27.23;;
7471;SDS011;3777;48.722;8.110;2022-12-20T00:48:47;29.05;;;25.25;;
7471;SDS011;3777;48.722;8.110;2022-12-20T00:51:15;34.15;;;28.23;;
7471;SDS011;3777;48.722;8.110;2022-12-20T00:53:44;28.88;;;25.25;;
7471;SDS011;3777;48.722;8.110;2022-12-20T00:56:12;27.77;;;24.67;;
7471;SDS011;3777;48.722;8.110;2022-12-20T00:58:40;28.85;;;24.42;;
7471;SDS011;3777;48.722;8.110;2022-12-20T01:01:13;25.98;;;23.10;;
7471;SDS011;3777;48.722;8.110;2022-12-20T01:03:43;29.73;;;24.67;;
7471;SDS011;3777;48.722;8.110;2022-12-20T01:06:10;30.02;;;26.42;;
7471;SDS011;3777;48.722;8.110;2022-12-20T01:08:37;27.67;;;24.58;;
7471;SDS011;3777;48.722;8.110;2022-12-20T01:11:05;31.65;;;26.63;;
7471;SDS011;3777;48.722;8.110;2022-12-20T01:13:35;26.45;;;23.10;;
7471;SDS011;3777;48.722;8.110;2022-12-20T01:16:04;29.05;;;25.90;;
7471;SDS011;3777;48.722;8.110;2022-12-20T01:18:31;28.05;;;24.08;;
7471;SDS011;3777;48.722;8.110;2022-12-20T01:21:03;26.90;;;23.33;;
7471;SDS011;3777;48.722;8.110;2022-12-20T01:23:32;31.02;;;25.88;;
7471;SDS011;3777;48.722;8.110;2022-12-20T01:25:59;31.48;;;27.65;;
7471;SDS011;3777;48.722;8.110;2022-12-20T01:28:28;28.98;;;24.00;;
7471;SDS011;3777;48.722;8.110;2022-12-20T01:30:56;32.95;;;27.58;;
7471;SDS011;3777;48.722;8.110;2022-12-20T01:33:23;34.70;;;28.70;;
7471;SDS011;3777;48.722;8.110;2022-12-20T01:35:59;36.80;;;30.17;;
7471;SDS011;3777;48.722;8.110;2022-12-20T01:38:28;32.28;;;28.05;;
7471;SDS011;3777;48.722;8.110;2022-12-20T01:40:56;34.50;;;29.10;;
7471;SDS011;3777;48.722;8.110;2022-12-20T01:43:23;28.95;;;24.75;;
7471;SDS011;3777;48.722;8.110;2022-12-20T01:45:51;33.25;;;28.00;;
7471;SDS011;3777;48.722;8.110;2022-12-20T01:48:20;32.72;;;27.00;;
7471;SDS011;3777;48.722;8.110;2022-12-20T01:50:50;28.98;;;25.48;;
7471;SDS011;3777;48.722;8.110;2022-12-20T01:53:19;28.17;;;24.02;;
7471;SDS011;3777;48.722;8.110;2022-12-20T01:55:49;27.60;;;24.15;;
7471;SDS011;3777;48.722;8.110;2022-12-20T01:58:16;31.15;;;25.60;;
7471;SDS011;3777;48.722;8.110;2022-12-20T02:00:45;29.38;;;25.55;;
7471;SDS011;3777;48.722;8.110;2022-12-20T02:03:13;30.08;;;26.10;;
7471;SDS011;3777;48.722;8.110;2022-12-20T02:05:41;31.23;;;26.60;;
7471;SDS011;3777;48.722;8.110;2022-12-20T02:08:09;33.70;;;27.70;;
7471;SDS011;3777;48.722;8.110;2022-12-20T02:10:43;32.20;;;27.25;;
7471;SDS011;3777;48.722;8.110;2022-12-20T02:13:30;33.80;;;28.50;;
7471;SDS011;3777;48.722;8.110;2022-12-20T02:16:07;34.95;;;29.23;;
7471;SDS011;3777;48.722;8.110;2022-12-20T02:18:38;36.63;;;29.92;;
7471;SDS011;3777;48.722;8.110;2022-12-20T02:21:13;30.98;;;27.13;;
7471;SDS011;3777;48.722;8.110;2022-12-20T02:27:11;30.40;;;25.88;;
7471;SDS011;3777;48.722;8.110;2022-12-20T02:30:08;26.33;;;23.17;;
7471;SDS011;3777;48.722;8.110;2022-12-20T02:32:38;28.00;;;24.30;;
7471;SDS011;3777;48.722;8.110;2022-12-20T02:35:11;33.75;;;27.85;;
7471;SDS011;3777;48.722;8.110;2022-12-20T02:37:49;27.33;;;23.58;;
7471;SDS011;3777;48.722;8.110;2022-12-20T02:40:18;27.50;;;23.60;;
7471;SDS011;3777;48.722;8.110;2022-12-20T02:42:49;25.37;;;22.03;;
7471;SDS011;3777;48.722;8.110;2022-12-20T02:45:20;26.55;;;23.63;;
7471;SDS011;3777;48.722;8.110;2022-12-20T02:47:51;27.88;;;23.88;;
7471;SDS011;3777;48.722;8.110;2022-12-20T02:50:25;28.88;;;24.98;;
7471;SDS011;3777;48.722;8.110;2022-12-20T02:52:56;28.02;;;23.55;;
7471;SDS011;3777;48.722;8.110;2022-12-20T02:55:26;24.50;;;21.45;;
7471;SDS011;3777;48.722;8.110;2022-12-20T02:57:59;30.13;;;26.58;;
7471;SDS011;3777;48.722;8.110;2022-12-20T03:00:33;28.85;;;25.10;;
7471;SDS011;3777;48.722;8.110;2022-12-20T03:03:03;30.60;;;27.27;;
7471;SDS011;3777;48.722;8.110;2022-12-20T03:05:50;30.20;;;26.03;;
7471;SDS011;3777;48.722;8.110;2022-12-20T03:08:20;29.42;;;25.13;;
7471;SDS011;3777;48.722;8.110;2022-12-20T03:10:47;32.05;;;25.38;;
7471;SDS011;3777;48.722;8.110;2022-12-20T03:13:15;30.53;;;25.53;;
7471;SDS011;3777;48.722;8.110;2022-12-20T03:15:44;28.98;;;24.60;;
7471;SDS011;3777;48.722;8.110;2022-12-20T03:18:11;27.57;;;23.97;;
7471;SDS011;3777;48.722;8.110;2022-12-20T03:20:38;26.65;;;22.92;;
7471;SDS011;3777;48.722;8.110;2022-12-20T03:23:05;26.97;;;22.47;;
7471;SDS011;3777;48.722;8.110;2022-12-20T03:25:32;23.77;;;21.15;;
7471;SDS011;3777;48.722;8.110;2022-12-20T03:27:59;25.23;;;21.90;;
7471;SDS011;3777;48.722;8.110;2022-12-20T03:30:26;28.52;;;23.63;;
7471;SDS011;3777;48.722;8.110;2022-12-20T03:32:55;22.45;;;19.70;;
7471;SDS011;3777;48.722;8.110;2022-12-20T03:35:22;24.90;;;22.13;;
7471;SDS011;3777;48.722;8.110;2022-12-20T03:37:49;21.75;;;19.25;;
7471;SDS011;3777;48.722;8.110;2022-12-20T03:40:16;22.80;;;20.13;;
7471;SDS011;3777;48.722;8.110;2022-12-20T03:42:43;22.73;;;20.25;;
7471;SDS011;3777;48.722;8.110;2022-12-20T03:45:10;22.10;;;19.20;;
7471;SDS011;3777;48.722;8.110;2022-12-20T03:47:37;21.20;;;18.90;;
7471;SDS011;3777;48.722;8.110;2022-12-20T03:50:06;21.25;;;19.00;;
7471;SDS011;3777;48.722;8.110;2022-12-20T03:52:34;22.10;;;19.02;;
7471;SDS011;3777;48.722;8.110;2022-12-20T03:55:01;21.60;;;18.33;;
7471;SDS011;3777;48.722;8.110;2022-12-20T03:57:28;21.50;;;18.95;;
7471;SDS011;3777;48.722;8.110;2022-12-20T03:59:55;21.90;;;19.48;;
7471;SDS011;3777;48.722;8.110;2022-12-20T04:02:22;18.25;;;16.25;;
7471;SDS011;3777;48.722;8.110;2022-12-20T04:04:49;20.77;;;18.57;;
7471;SDS011;3777;48.722;8.110;2022-12-20T04:07:18;18.85;;;16.77;;
7471;SDS011;3777;48.722;8.110;2022-12-20T04:09:45;18.90;;;16.90;;
7471;SDS011;3777;48.722;8.110;2022-12-20T04:12:12;22.20;;;19.70;;
7471;SDS011;3777;48.722;8.110;2022-12-20T04:14:39;22.33;;;19.17;;
7471;SDS011;3777;48.722;8.110;2022-12-20T04:17:05;21.15;;;18.95;;
7471;SDS011;3777;48.722;8.110;2022-12-20T04:19:32;24.10;;;21.55;;
7471;SDS011;3777;48.722;8.110;2022-12-20T04:21:59;23.70;;;20.47;;
7471;SDS011;3777;48.722;8.110;2022-12-20T04:24:28;23.50;;;20.42;;
7471;SDS011;3777;48.722;8.110;2022-12-20T04:26:55;20.93;;;18.70;;
7471;SDS011;3777;48.722;8.110;2022-12-20T04:29:21;21.83;;;19.42;;
7471;SDS011;3777;48.722;8.110;2022-12-20T04:31:48;21.83;;;19.42;;
7471;SDS011;3777;48.722;8.110;2022-12-20T04:34:15;18.35;;;16.20;;
7471;SDS011;3777;48.722;8.110;2022-12-20T04:36:42;17.08;;;15.27;;
7471;SDS011;3777;48.722;8.110;2022-12-20T04:39:09;20.92;;;18.55;;
7471;SDS011;3777;48.722;8.110;2022-12-20T04:41:38;18.42;;;16.52;;
7471;SDS011;3777;48.722;8.110;2022-12-20T04:44:04;20.03;;;17.93;;
7471;SDS011;3777;48.722;8.110;2022-12-20T04:46:31;19.67;;;17.67;;
7471;SDS011;3777;48.722;8.110;2022-12-20T04:48:58;21.63;;;19.33;;
7471;SDS011;3777;48.722;8.110;2022-12-20T04:51:25;18.73;;;16.65;;
7471;SDS011;3777;48.722;8.110;2022-12-20T04:53:53;20.25;;;18.00;;
7471;SDS011;3777;48.722;8.110;2022-12-20T04:56:19;22.17;;;19.38;;
7471;SDS011;3777;48.722;8.110;2022-12-20T04:58:49;21.52;;;17.85;;
7471;SDS011;3777;48.722;8.110;2022-12-20T05:01:18;21.10;;;18.80;;
7471;SDS011;3777;48.722;8.110;2022-12-20T05:03:45;20.87;;;18.63;;
7471;SDS011;3777;48.722;8.110;2022-12-20T05:06:13;19.73;;;17.67;;
7471;SDS011;3777;48.722;8.110;2022-12-20T05:08:40;20.73;;;18.52;;
7471;SDS011;3777;48.722;8.110;2022-12-20T05:11:08;20.17;;;18.00;;
7471;SDS011;3777;48.722;8.110;2022-12-20T05:13:35;19.08;;;17.08;;
7471;SDS011;3777;48.722;8.110;2022-12-20T05:16:04;21.00;;;18.80;;
7471;SDS011;3777;48.722;8.110;2022-12-20T05:18:31;21.88;;;19.05;;
7471;SDS011;3777;48.722;8.110;2022-12-20T05:20:59;20.00;;;17.85;;
7471;SDS011;3777;48.722;8.110;2022-12-20T05:23:44;19.55;;;17.52;;
7471;SDS011;3777;48.722;8.110;2022-12-20T05:26:29;20.63;;;17.48;;
7471;SDS011;3777;48.722;8.110;2022-12-20T05:28:57;16.90;;;15.10;;
7471;SDS011;3777;48.722;8.110;2022-12-20T05:31:25;17.52;;;15.38;;
7471;SDS011;3777;48.722;8.110;2022-12-20T05:33:52;16.73;;;14.93;;
7471;SDS011;3777;48.722;8.110;2022-12-20T05:36:20;16.37;;;14.50;;
7471;SDS011;3777;48.722;8.110;2022-12-20T05:38:47;18.33;;;16.42;;
7471;SDS011;3777;48.722;8.110;2022-12-20T05:41:14;17.42;;;15.57;;
7471;SDS011;3777;48.722;8.110;2022-12-20T05:43:41;16.58;;;14.82;;
7471;SDS011;3777;48.722;8.110;2022-12-20T05:46:08;16.45;;;14.68;;
7471;SDS011;3777;48.722;8.110;2022-12-20T05:48:37;19.10;;;17.10;;
7471;SDS011;3777;48.722;8.110;2022-12-20T05:51:04;18.42;;;16.42;;
7471;SDS011;3777;48.722;8.110;2022-12-20T05:53:31;16.95;;;15.15;;
7471;SDS011;3777;48.722;8.110;2022-12-20T05:55:58;17.23;;;15.43;;
7471;SDS011;3777;48.722;8.110;2022-12-20T05:58:26;18.13;;;16.23;;
7471;SDS011;3777;48.722;8.110;2022-12-20T06:00:53;18.42;;;16.48;;
7471;SDS011;3777;48.722;8.110;2022-12-20T06:03:20;22.37;;;20.03;;
7471;SDS011;3777;48.722;8.110;2022-12-20T06:05:49;19.65;;;17.65;;
7471;SDS011;3777;48.722;8.110;2022-12-20T06:08:15;21.80;;;18.80;;
7471;SDS011;3777;48.722;8.110;2022-12-20T06:10:42;21.45;;;18.27;;
7471;SDS011;3777;48.722;8.110;2022-12-20T06:13:09;20.23;;;18.08;;
7471;SDS011;3777;48.722;8.110;2022-12-20T06:15:36;22.85;;;18.20;;
7471;SDS011;3777;48.722;8.110;2022-12-20T06:18:03;27.55;;;20.50;;
7471;SDS011;3777;48.722;8.110;2022-12-20T06:20:31;24.20;;;18.80;;
7471;SDS011;3777;48.722;8.110;2022-12-20T06:23:00;22.95;;;17.77;;
7471;SDS011;3777;48.722;8.110;2022-12-20T06:25:27;21.55;;;17.42;;
7471;SDS011;3777;48.722;8.110;2022-12-20T06:27:55;21.75;;;17.20;;
7471;SDS011;3777;48.722;8.110;2022-12-20T06:30:22;20.90;;;16.42;;
7471;SDS011;3777;48.722;8.110;2022-12-20T06:32:49;23.95;;;17.92;;
7471;SDS011;3777;48.722;8.110;2022-12-20T06:35:16;20.25;;;16.05;;
7471;SDS011;3777;48.722;8.110;2022-12-20T06:37:43;20.23;;;16.10;;
7471;SDS011;3777;48.722;8.110;2022-12-20T06:40:12;18.85;;;15.25;;
7471;SDS011;3777;48.722;8.110;2022-12-20T06:42:39;20.70;;;15.98;;
7471;SDS011;3777;48.722;8.110;2022-12-20T06:45:06;19.73;;;16.30;;
7471;SDS011;3777;48.722;8.110;2022-12-20T06:47:34;22.30;;;17.85;;
7471;SDS011;3777;48.722;8.110;2022-12-20T06:50:02;20.75;;;16.42;;
7471;SDS011;3777;48.722;8.110;2022-12-20T06:52:29;24.47;;;18.53;;
7471;SDS011;3777;48.722;8.110;2022-12-20T06:54:56;22.02;;;16.95;;
7471;SDS011;3777;48.722;8.110;2022-12-20T06:57:24;20.83;;;16.63;;
7471;SDS011;3777;48.722;8.110;2022-12-20T06:59:51;16.77;;;14.93;;
7471;SDS011;3777;48.722;8.110;2022-12-20T07:02:18;18.05;;;15.43;;
7471;SDS011;3777;48.722;8.110;2022-12-20T07:04:45;21.10;;;18.08;;
7471;SDS011;3777;48.722;8.110;2022-12-20T07:07:12;22.50;;;18.55;;
7471;SDS011;3777;48.722;8.110;2022-12-20T07:09:39;24.70;;;20.88;;
7471;SDS011;3777;48.722;8.110;2022-12-20T07:12:07;27.05;;;21.77;;
7471;SDS011;3777;48.722;8.110;2022-12-20T07:14:35;26.98;;;22.02;;
7471;SDS011;3777;48.722;8.110;2022-12-20T07:17:02;24.13;;;19.57;;
7471;SDS011;3777;48.722;8.110;2022-12-20T07:19:29;21.03;;;17.77;;
7471;SDS011;3777;48.722;8.110;2022-12-20T07:21:56;18.45;;;16.33;;
7471;SDS011;3777;48.722;8.110;2022-12-20T07:24:23;20.92;;;17.75;;
7471;SDS011;3777;48.722;8.110;2022-12-20T07:26:50;19.83;;;15.60;;
7471;SDS011;3777;48.722;8.110;2022-12-20T07:29:17;19.38;;;15.75;;
7471;SDS011;3777;48.722;8.110;2022-12-20T07:31:45;17.90;;;16.00;;
7471;SDS011;3777;48.722;8.110;2022-12-20T07:34:12;19.17;;;16.00;;
7471;SDS011;3777;48.722;8.110;2022-12-20T07:36:39;18.60;;;15.82;;
7471;SDS011;3777;48.722;8.110;2022-12-20T07:39:06;19.58;;;17.35;;
7471;SDS011;3777;48.722;8.110;2022-12-20T07:41:34;19.73;;;17.50;;
7471;SDS011;3777;48.722;8.110;2022-12-20T07:44:01;20.90;;;17.88;;
7471;SDS011;3777;48.722;8.110;2022-12-20T07:46:28;19.85;;;17.08;;
7471;SDS011;3777;48.722;8.110;2022-12-20T07:48:56;18.77;;;16.58;;
7471;SDS011;3777;48.722;8.110;2022-12-20T07:51:24;17.87;;;16.00;;
7471;SDS011;3777;48.722;8.110;2022-12-20T07:53:53;17.67;;;15.60;;
7471;SDS011;3777;48.722;8.110;2022-12-20T07:56:26;18.42;;;16.40;;
7471;SDS011;3777;48.722;8.110;2022-12-20T07:58:55;16.35;;;14.65;;
7471;SDS011;3777;48.722;8.110;2022-12-20T08:01:25;16.83;;;15.02;;
7471;SDS011;3777;48.722;8.110;2022-12-20T08:03:54;16.90;;;15.15;;
7471;SDS011;3777;48.722;8.110;2022-12-20T08:06:27;16.50;;;14.80;;
7471;SDS011;3777;48.722;8.110;2022-12-20T08:08:56;14.95;;;13.43;;
7471;SDS011;3777;48.722;8.110;2022-12-20T08:11:26;15.48;;;13.77;;
7471;SDS011;3777;48.722;8.110;2022-12-20T08:13:55;15.48;;;13.50;;
7471;SDS011;3777;48.722;8.110;2022-12-20T08:16:22;16.27;;;14.55;;
7471;SDS011;3777;48.722;8.110;2022-12-20T08:18:49;15.10;;;13.57;;
7471;SDS011;3777;48.722;8.110;2022-12-20T08:21:18;24.17;;;21.58;;
7471;SDS011;3777;48.722;8.110;2022-12-20T08:23:44;25.17;;;22.55;;
7471;SDS011;3777;48.722;8.110;2022-12-20T08:26:11;22.08;;;19.77;;
7471;SDS011;3777;48.722;8.110;2022-12-20T08:28:38;24.35;;;21.02;;
7471;SDS011;3777;48.722;8.110;2022-12-20T08:31:06;21.73;;;17.80;;
7471;SDS011;3777;48.722;8.110;2022-12-20T08:33:34;24.10;;;19.38;;
7471;SDS011;3777;48.722;8.110;2022-12-20T08:36:04;23.00;;;20.03;;
7471;SDS011;3777;48.722;8.110;2022-12-20T08:38:33;22.70;;;18.33;;
7471;SDS011;3777;48.722;8.110;2022-12-20T08:41:01;16.83;;;15.02;;
7471;SDS011;3777;48.722;8.110;2022-12-20T08:43:29;20.80;;;18.53;;
7471;SDS011;3777;48.722;8.110;2022-12-20T08:45:56;20.58;;;17.92;;
7471;SDS011;3777;48.722;8.110;2022-12-20T08:48:23;19.65;;;17.55;;
7471;SDS011;3777;48.722;8.110;2022-12-20T08:50:54;20.42;;;17.95;;
7471;SDS011;3777;48.722;8.110;2022-12-20T08:53:21;31.58;;;27.95;;
7471;SDS011;3777;48.722;8.110;2022-12-20T08:55:50;23.80;;;21.30;;
7471;SDS011;3777;48.722;8.110;2022-12-20T08:58:18;23.20;;;20.73;;
7471;SDS011;3777;48.722;8.110;2022-12-20T09:00:45;22.48;;;20.08;;
7471;SDS011;3777;48.722;8.110;2022-12-20T09:03:12;22.13;;;19.73;;
7471;SDS011;3777;48.722;8.110;2022-12-20T09:05:43;22.83;;;19.42;;
7471;SDS011;3777;48.722;8.110;2022-12-20T09:08:11;25.38;;;19.63;;
7471;SDS011;3777;48.722;8.110;2022-12-20T09:10:38;23.10;;;19.13;;
7471;SDS011;3777;48.722;8.110;2022-12-20T09:13:07;34.45;;;22.92;;
7471;SDS011;3777;48.722;8.110;2022-12-20T09:15:34;32.20;;;22.38;;
7471;SDS011;3777;48.722;8.110;2022-12-20T09:18:01;31.10;;;21.75;;
7471;SDS011;3777;48.722;8.110;2022-12-20T09:20:29;33.95;;;22.88;;
7471;SDS011;3777;48.722;8.110;2022-12-20T09:22:57;29.35;;;21.83;;
7471;SDS011;3777;48.722;8.110;2022-12-20T09:25:24;24.15;;;18.60;;
7471;SDS011;3777;48.722;8.110;2022-12-20T09:27:51;22.17;;;18.60;;
7471;SDS011;3777;48.722;8.110;2022-12-20T09:30:20;23.45;;;18.42;;
7471;SDS011;3777;48.722;8.110;2022-12-20T09:32:47;24.48;;;20.00;;
7471;SDS011;3777;48.722;8.110;2022-12-20T09:35:14;21.35;;;17.30;;
7471;SDS011;3777;48.722;8.110;2022-12-20T09:37:41;21.88;;;17.60;;
7471;SDS011;3777;48.722;8.110;2022-12-20T09:40:09;22.27;;;17.40;;
7471;SDS011;3777;48.722;8.110;2022-12-20T09:42:43;23.73;;;17.48;;
7471;SDS011;3777;48.722;8.110;2022-12-20T09:45:14;26.73;;;19.15;;
7471;SDS011;3777;48.722;8.110;2022-12-20T09:47:48;31.40;;;18.98;;
7471;SDS011;3777;48.722;8.110;2022-12-20T09:50:16;26.88;;;19.63;;
7471;SDS011;3777;48.722;8.110;2022-12-20T09:52:47;20.15;;;16.00;;
7471;SDS011;3777;48.722;8.110;2022-12-20T09:55:25;24.17;;;17.90;;
7471;SDS011;3777;48.722;8.110;2022-12-20T09:58:01;24.75;;;17.35;;
7471;SDS011;3777;48.722;8.110;2022-12-20T10:00:39;25.25;;;18.02;;
7471;SDS011;3777;48.722;8.110;2022-12-20T10:03:12;26.50;;;18.15;;
7471;SDS011;3777;48.722;8.110;2022-12-20T10:05:48;21.77;;;17.05;;
7471;SDS011;3777;48.722;8.110;2022-12-20T10:08:23;24.10;;;17.45;;
7471;SDS011;3777;48.722;8.110;2022-12-20T10:11:06;23.47;;;15.67;;
7471;SDS011;3777;48.722;8.110;2022-12-20T10:13:41;21.07;;;14.70;;
7471;SDS011;3777;48.722;8.110;2022-12-20T10:16:32;22.53;;;14.63;;
7471;SDS011;3777;48.722;8.110;2022-12-20T10:19:14;19.17;;;13.70;;
7471;SDS011;3777;48.722;8.110;2022-12-20T10:21:57;17.97;;;13.90;;
7471;SDS011;3777;48.722;8.110;2022-12-20T10:24:32;25.43;;;15.00;;
7471;SDS011;3777;48.722;8.110;2022-12-20T10:27:03;20.77;;;13.63;;
7471;SDS011;3777;48.722;8.110;2022-12-20T10:29:37;23.83;;;15.00;;
7471;SDS011;3777;48.722;8.110;2022-12-20T10:32:07;20.23;;;13.83;;
7471;SDS011;3777;48.722;8.110;2022-12-20T10:34:41;26.90;;;14.33;;
7471;SDS011;3777;48.722;8.110;2022-12-20T10:37:16;19.83;;;13.87;;
7471;SDS011;3777;48.722;8.110;2022-12-20T10:39:43;28.67;;;16.20;;
7471;SDS011;3777;48.722;8.110;2022-12-20T10:42:23;29.57;;;16.37;;
7471;SDS011;3777;48.722;8.110;2022-12-20T10:44:52;22.87;;;15.50;;
7471;SDS011;3777;48.722;8.110;2022-12-20T10:47:22;27.10;;;16.10;;
7471;SDS011;3777;48.722;8.110;2022-12-20T10:50:09;22.47;;;15.40;;
7471;SDS011;3777;48.722;8.110;2022-12-20T10:52:40;29.70;;;18.50;;
7471;SDS011;3777;48.722;8.110;2022-12-20T10:58:00;31.63;;;19.33;;
7471;SDS011;3777;48.722;8.110;2022-12-20T11:00:31;27.23;;;18.10;;
7471;SDS011;3777;48.722;8.110;2022-12-20T11:03:04;37.17;;;22.13;;
7471;SDS011;3777;48.722;8.110;2022-12-20T11:05:38;34.37;;;24.33;;
7471;SDS011;3777;48.722;8.110;2022-12-20T11:08:12;31.37;;;21.23;;
7471;SDS011;3777;48.722;8.110;2022-12-20T11:10:40;27.43;;;18.70;;
7471;SDS011;3777;48.722;8.110;2022-12-20T11:13:17;26.77;;;18.03;;
7471;SDS011;3777;48.722;8.110;2022-12-20T11:15:47;29.47;;;18.17;;
7471;SDS011;3777;48.722;8.110;2022-12-20T11:18:16;23.90;;;16.80;;
7471;SDS011;3777;48.722;8.110;2022-12-20T11:20:52;20.57;;;15.00;;
7471;SDS011;3777;48.722;8.110;2022-12-20T11:23:29;22.07;;;14.00;;
7471;SDS011;3777;48.722;8.110;2022-12-20T11:26:07;16.67;;;13.07;;
7471;SDS011;3777;48.722;8.110;2022-12-20T11:28:49;20.13;;;12.00;;
7471;SDS011;3777;48.722;8.110;2022-12-20T11:31:27;24.73;;;16.27;;
7471;SDS011;3777;48.722;8.110;2022-12-20T11:34:09;21.40;;;14.43;;
7471;SDS011;3777;48.722;8.110;2022-12-20T11:36:58;20.40;;;13.57;;
7471;SDS011;3777;48.722;8.110;2022-12-20T11:39:34;15.40;;;12.10;;
7471;SDS011;3777;48.722;8.110;2022-12-20T11:42:08;18.23;;;12.53;;
7471;SDS011;3777;48.722;8.110;2022-12-20T11:44:46;22.43;;;13.27;;
7471;SDS011;3777;48.722;8.110;2022-12-20T11:47:30;17.77;;;11.30;;
7471;SDS011;3777;48.722;8.110;2022-12-20T11:50:18;21.33;;;14.17;;
7471;SDS011;3777;48.722;8.110;2022-12-20T11:52:59;17.03;;;13.50;;
7471;SDS011;3777;48.722;8.110;2022-12-20T11:55:30;27.30;;;16.80;;
7471;SDS011;3777;48.722;8.110;2022-12-20T11:58:01;19.70;;;13.70;;
7471;SDS011;3777;48.722;8.110;2022-12-20T12:00:31;22.83;;;15.53;;
7471;SDS011;3777;48.722;8.110;2022-12-20T12:03:00;23.37;;;15.70;;
7471;SDS011;3777;48.722;8.110;2022-12-20T12:05:38;21.67;;;14.70;;
7471;SDS011;3777;48.722;8.110;2022-12-20T12:08:10;26.77;;;16.13;;
7471;SDS011;3777;48.722;8.110;2022-12-20T12:10:43;21.73;;;15.63;;
7471;SDS011;3777;48.722;8.110;2022-12-20T12:13:15;19.97;;;14.57;;
7471;SDS011;3777;48.722;8.110;2022-12-20T12:15:46;24.63;;;18.27;;
7471;SDS011;3777;48.722;8.110;2022-12-20T12:18:20;22.77;;;15.90;;
7471;SDS011;3777;48.722;8.110;2022-12-20T12:20:50;19.03;;;14.43;;
7471;SDS011;3777;48.722;8.110;2022-12-20T12:23:25;23.83;;;16.23;;
7471;SDS011;3777;48.722;8.110;2022-12-20T12:25:55;23.80;;;16.53;;
7471;SDS011;3777;48.722;8.110;2022-12-20T12:28:24;21.63;;;16.17;;
7471;SDS011;3777;48.722;8.110;2022-12-20T12:30:52;26.07;;;16.30;;
7471;SDS011;3777;48.722;8.110;2022-12-20T12:33:24;21.60;;;17.53;;
7471;SDS011;3777;48.722;8.110;2022-12-20T12:36:02;19.20;;;14.83;;
7471;SDS011;3777;48.722;8.110;2022-12-20T12:38:56;22.23;;;17.80;;
7471;SDS011;3777;48.722;8.110;2022-12-20T12:44:45;19.60;;;16.27;;
7471;SDS011;3777;48.722;8.110;2022-12-20T12:47:18;19.00;;;15.90;;
7471;SDS011;3777;48.722;8.110;2022-12-20T12:49:49;21.53;;;16.60;;
7471;SDS011;3777;48.722;8.110;2022-12-20T12:52:40;19.40;;;15.60;;
7471;SDS011;3777;48.722;8.110;2022-12-20T13:00:57;28.80;;;20.87;;
7471;SDS011;3777;48.722;8.110;2022-12-20T13:03:42;23.50;;;17.87;;
7471;SDS011;3777;48.722;8.110;2022-12-20T13:09:39;24.67;;;18.53;;
7471;SDS011;3777;48.722;8.110;2022-12-20T13:18:19;26.63;;;17.53;;
7471;SDS011;3777;48.722;8.110;2022-12-20T13:23:58;18.87;;;15.43;;
7471;SDS011;3777;48.722;8.110;2022-12-20T13:36:00;24.53;;;17.53;;
7471;SDS011;3777;48.722;8.110;2022-12-20T13:38:48;19.87;;;15.27;;
7471;SDS011;3777;48.722;8.110;2022-12-20T13:41:30;21.70;;;16.83;;
7471;SDS011;3777;48.722;8.110;2022-12-20T13:44:01;16.90;;;13.77;;
7471;SDS011;3777;48.722;8.110;2022-12-20T13:47:06;17.27;;;13.43;;
7471;SDS011;3777;48.722;8.110;2022-12-20T13:49:46;17.67;;;14.53;;
7471;SDS011;3777;48.722;8.110;2022-12-20T13:52:23;19.90;;;14.60;;
7471;SDS011;3777;48.722;8.110;2022-12-20T13:54:55;20.47;;;13.90;;
7471;SDS011;3777;48.722;8.110;2022-12-20T13:57:28;19.87;;;14.83;;
7471;SDS011;3777;48.722;8.110;2022-12-20T13:59:59;16.67;;;13.87;;
7471;SDS011;3777;48.722;8.110;2022-12-20T14:02:29;18.50;;;13.57;;
7471;SDS011;3777;48.722;8.110;2022-12-20T14:05:02;15.53;;;12.90;;
7471;SDS011;3777;48.722;8.110;2022-12-20T14:07:32;17.70;;;14.90;;
7471;SDS011;3777;48.722;8.110;2022-12-20T14:10:01;17.33;;;13.40;;
7471;SDS011;3777;48.722;8.110;2022-12-20T14:12:29;19.40;;;14.23;;
7471;SDS011;3777;48.722;8.110;2022-12-20T14:14:56;19.37;;;13.63;;
7471;SDS011;3777;48.722;8.110;2022-12-20T14:17:24;16.40;;;13.03;;
7471;SDS011;3777;48.722;8.110;2022-12-20T14:20:11;15.77;;;12.33;;
7471;SDS011;3777;48.722;8.110;2022-12-20T14:22:40;18.47;;;14.67;;
7471;SDS011;3777;48.722;8.110;2022-12-20T14:25:13;23.43;;;15.73;;
7471;SDS011;3777;48.722;8.110;2022-12-20T14:27:43;18.40;;;13.30;;
7471;SDS011;3777;48.722;8.110;2022-12-20T14:30:25;19.93;;;14.70;;
7471;SDS011;3777;48.722;8.110;2022-12-20T14:33:00;16.60;;;13.67;;
7471;SDS011;3777;48.722;8.110;2022-12-20T14:35:29;24.77;;;15.87;;
7471;SDS011;3777;48.722;8.110;2022-12-20T14:37:56;23.83;;;16.53;;
7471;SDS011;3777;48.722;8.110;2022-12-20T14:40:26;17.77;;;14.17;;
7471;SDS011;3777;48.722;8.110;2022-12-20T14:42:54;16.47;;;13.67;;
7471;SDS011;3777;48.722;8.110;2022-12-20T14:45:22;21.97;;;15.67;;
7471;SDS011;3777;48.722;8.110;2022-12-20T14:47:55;19.33;;;15.07;;
7471;SDS011;3777;48.722;8.110;2022-12-20T14:50:29;22.93;;;17.60;;
7471;SDS011;3777;48.722;8.110;2022-12-20T14:52:58;22.63;;;17.57;;
7471;SDS011;3777;48.722;8.110;2022-12-20T14:55:28;21.77;;;16.97;;
7471;SDS011;3777;48.722;8.110;2022-12-20T14:57:58;29.80;;;20.80;;
7471;SDS011;3777;48.722;8.110;2022-12-20T15:00:26;27.53;;;20.13;;
7471;SDS011;3777;48.722;8.110;2022-12-20T15:02:59;25.97;;;20.53;;
7471;SDS011;3777;48.722;8.110;2022-12-20T15:08:18;26.90;;;20.87;;
7471;SDS011;3777;48.722;8.110;2022-12-20T15:10:48;24.77;;;19.63;;
7471;SDS011;3777;48.722;8.110;2022-12-20T15:13:18;27.67;;;21.50;;
7471;SDS011;3777;48.722;8.110;2022-12-20T15:15:47;33.07;;;22.00;;
7471;SDS011;3777;48.722;8.110;2022-12-20T15:18:14;27.63;;;20.37;;
7471;SDS011;3777;48.722;8.110;2022-12-20T15:20:45;26.43;;;18.83;;
7471;SDS011;3777;48.722;8.110;2022-12-20T15:23:17;27.80;;;22.23;;
7471;SDS011;3777;48.722;8.110;2022-12-20T15:25:47;27.23;;;21.90;;
7471;SDS011;3777;48.722;8.110;2022-12-20T15:28:14;42.50;;;25.77;;
7471;SDS011;3777;48.722;8.110;2022-12-20T15:30:43;29.77;;;22.60;;
7471;SDS011;3777;48.722;8.110;2022-12-20T15:33:17;27.97;;;19.40;;
7471;SDS011;3777;48.722;8.110;2022-12-20T15:35:45;27.53;;;20.93;;
7471;SDS011;3777;48.722;8.110;2022-12-20T15:38:14;31.33;;;21.83;;
7471;SDS011;3777;48.722;8.110;2022-12-20T15:40:44;26.00;;;18.63;;
7471;SDS011;3777;48.722;8.110;2022-12-20T15:43:14;23.83;;;18.57;;
7471;SDS011;3777;48.722;8.110;2022-12-20T15:45:43;22.97;;;17.90;;
7471;SDS011;3777;48.722;8.110;2022-12-20T15:48:13;23.70;;;18.17;;